sensor_id;sensor_type;location;lat;lon;timestamp;P1;durP1;ratioP1;P2;durP2;ratioP2
67749;SDS011;54550;48.838;8.828;2024-03-23T00:51:33;5.93;;;2.50;;
67749;SDS011;54550;48.838;8.828;2024-03-23T00:54:01;6.38;;;2.42;;
67749;SDS011;54550;48.838;8.828;2024-03-23T00:56:30;5.65;;;2.13;;
67749;SDS011;54550;48.838;8.828;2024-03-23T00:58:58;4.05;;;1.90;;
67749;SDS011;54550;48.838;8.828;2024-03-23T01:01:27;5.20;;;2.10;;
67749;SDS011;54550;48.838;8.828;2024-03-23T01:04:01;7.65;;;2.08;;
67749;SDS011;54550;48.838;8.828;2024-03-23T01:06:31;6.15;;;2.70;;
67749;SDS011;54550;48.838;8.828;2024-03-23T01:09:08;5.10;;;2.03;;
67749;SDS011;54550;48.838;8.828;2024-03-23T01:11:39;5.47;;;1.83;;
67749;SDS011;54550;48.838;8.828;2024-03-23T01:14:05;3.97;;;1.67;;
67749;SDS011;54550;48.838;8.828;2024-03-23T01:16:54;5.28;;;2.42;;
67749;SDS011;54550;48.838;8.828;2024-03-23T01:19:27;5.72;;;2.50;;
67749;SDS011;54550;48.838;8.828;2024-03-23T01:24:40;8.38;;;2.60;;
67749;SDS011;54550;48.838;8.828;2024-03-23T01:27:08;6.03;;;2.20;;
67749;SDS011;54550;48.838;8.828;2024-03-23T01:29:35;6.07;;;2.20;;
67749;SDS011;54550;48.838;8.828;2024-03-23T01:32:31;4.18;;;1.80;;
67749;SDS011;54550;48.838;8.828;2024-03-23T01:35:03;4.25;;;1.60;;
67749;SDS011;54550;48.838;8.828;2024-03-23T01:37:40;3.25;;;1.55;;
67749;SDS011;54550;48.838;8.828;2024-03-23T01:40:27;4.10;;;1.80;;
67749;SDS011;54550;48.838;8.828;2024-03-23T01:42:57;2.85;;;1.42;;
67749;SDS011;54550;48.838;8.828;2024-03-23T01:45:32;3.90;;;1.30;;
67749;SDS011;54550;48.838;8.828;2024-03-23T01:48:02;2.70;;;0.98;;
67749;SDS011;54550;48.838;8.828;2024-03-23T01:50:38;3.38;;;1.58;;
67749;SDS011;54550;48.838;8.828;2024-03-23T01:53:21;3.90;;;1.83;;
67749;SDS011;54550;48.838;8.828;2024-03-23T01:55:49;4.15;;;1.60;;
67749;SDS011;54550;48.838;8.828;2024-03-23T01:58:18;2.88;;;1.33;;
67749;SDS011;54550;48.838;8.828;2024-03-23T02:00:44;3.42;;;1.60;;
67749;SDS011;54550;48.838;8.828;2024-03-23T02:06:17;4.40;;;1.63;;
67749;SDS011;54550;48.838;8.828;2024-03-23T02:08:47;4.13;;;1.45;;
67749;SDS011;54550;48.838;8.828;2024-03-23T02:11:16;3.17;;;1.48;;
67749;SDS011;54550;48.838;8.828;2024-03-23T02:13:53;2.45;;;1.05;;
67749;SDS011;54550;48.838;8.828;2024-03-23T02:16:19;3.75;;;1.33;;
67749;SDS011;54550;48.838;8.828;2024-03-23T02:18:57;3.83;;;1.38;;
67749;SDS011;54550;48.838;8.828;2024-03-23T02:21:23;2.70;;;1.20;;
67749;SDS011;54550;48.838;8.828;2024-03-23T02:23:48;2.55;;;1.23;;
67749;SDS011;54550;48.838;8.828;2024-03-23T02:26:14;2.72;;;1.40;;
67749;SDS011;54550;48.838;8.828;2024-03-23T02:28:43;3.40;;;1.50;;
67749;SDS011;54550;48.838;8.828;2024-03-23T02:31:16;4.45;;;1.83;;
67749;SDS011;54550;48.838;8.828;2024-03-23T02:33:44;4.78;;;1.42;;
67749;SDS011;54550;48.838;8.828;2024-03-23T02:36:11;4.63;;;1.23;;
67749;SDS011;54550;48.838;8.828;2024-03-23T02:38:39;3.05;;;1.27;;
67749;SDS011;54550;48.838;8.828;2024-03-23T02:41:05;3.03;;;1.13;;
67749;SDS011;54550;48.838;8.828;2024-03-23T02:43:37;2.63;;;1.20;;
67749;SDS011;54550;48.838;8.828;2024-03-23T02:46:02;2.80;;;1.30;;
67749;SDS011;54550;48.838;8.828;2024-03-23T02:48:29;4.30;;;1.42;;
67749;SDS011;54550;48.838;8.828;2024-03-23T02:50:55;5.63;;;1.45;;
67749;SDS011;54550;48.838;8.828;2024-03-23T02:53:24;3.08;;;1.38;;
67749;SDS011;54550;48.838;8.828;2024-03-23T02:55:57;3.05;;;1.13;;
67749;SDS011;54550;48.838;8.828;2024-03-23T02:58:23;2.92;;;1.50;;
67749;SDS011;54550;48.838;8.828;2024-03-23T03:00:50;6.75;;;1.63;;
67749;SDS011;54550;48.838;8.828;2024-03-23T03:03:16;5.53;;;1.70;;
67749;SDS011;54550;48.838;8.828;2024-03-23T03:05:54;6.45;;;1.45;;
67749;SDS011;54550;48.838;8.828;2024-03-23T03:10:46;3.88;;;1.55;;
67749;SDS011;54550;48.838;8.828;2024-03-23T03:13:14;3.67;;;1.55;;
67749;SDS011;54550;48.838;8.828;2024-03-23T03:15:53;4.07;;;1.85;;
67749;SDS011;54550;48.838;8.828;2024-03-23T03:18:21;5.85;;;1.80;;
67749;SDS011;54550;48.838;8.828;2024-03-23T03:20:53;5.07;;;2.15;;
67749;SDS011;54550;48.838;8.828;2024-03-23T03:23:19;6.80;;;2.33;;
67749;SDS011;54550;48.838;8.828;2024-03-23T03:25:45;5.47;;;2.38;;
67749;SDS011;54550;48.838;8.828;2024-03-23T03:28:10;4.15;;;2.15;;
67749;SDS011;54550;48.838;8.828;2024-03-23T03:30:36;3.95;;;1.95;;
67749;SDS011;54550;48.838;8.828;2024-03-23T03:33:01;3.90;;;1.70;;
67749;SDS011;54550;48.838;8.828;2024-03-23T03:35:26;3.90;;;1.85;;
67749;SDS011;54550;48.838;8.828;2024-03-23T03:37:55;4.40;;;1.83;;
67749;SDS011;54550;48.838;8.828;2024-03-23T03:40:20;3.60;;;1.58;;
67749;SDS011;54550;48.838;8.828;2024-03-23T03:42:52;6.53;;;1.73;;
67749;SDS011;54550;48.838;8.828;2024-03-23T03:45:23;4.40;;;1.60;;
67749;SDS011;54550;48.838;8.828;2024-03-23T03:47:49;3.53;;;1.45;;
67749;SDS011;54550;48.838;8.828;2024-03-23T03:50:14;4.30;;;1.70;;
67749;SDS011;54550;48.838;8.828;2024-03-23T03:52:43;2.90;;;1.42;;
67749;SDS011;54550;48.838;8.828;2024-03-23T03:55:13;7.05;;;2.15;;
67749;SDS011;54550;48.838;8.828;2024-03-23T04:00:16;3.70;;;1.33;;
67749;SDS011;54550;48.838;8.828;2024-03-23T04:02:42;5.07;;;1.60;;
67749;SDS011;54550;48.838;8.828;2024-03-23T04:05:08;6.63;;;2.70;;
67749;SDS011;54550;48.838;8.828;2024-03-23T04:07:42;8.93;;;3.95;;
67749;SDS011;54550;48.838;8.828;2024-03-23T04:10:38;12.82;;;6.00;;
67749;SDS011;54550;48.838;8.828;2024-03-23T04:14:05;13.60;;;7.35;;
67749;SDS011;54550;48.838;8.828;2024-03-23T04:16:39;17.42;;;7.43;;
67749;SDS011;54550;48.838;8.828;2024-03-23T04:19:04;22.48;;;10.73;;
67749;SDS011;54550;48.838;8.828;2024-03-23T04:21:39;22.80;;;9.60;;
67749;SDS011;54550;48.838;8.828;2024-03-23T04:24:46;21.35;;;9.13;;
67749;SDS011;54550;48.838;8.828;2024-03-23T04:27:15;26.88;;;11.95;;
67749;SDS011;54550;48.838;8.828;2024-03-23T04:30:07;28.73;;;12.32;;
67749;SDS011;54550;48.838;8.828;2024-03-23T04:36:01;27.40;;;12.05;;
67749;SDS011;54550;48.838;8.828;2024-03-23T04:38:30;30.95;;;13.18;;
67749;SDS011;54550;48.838;8.828;2024-03-23T04:51:25;22.77;;;10.32;;
67749;SDS011;54550;48.838;8.828;2024-03-23T04:54:42;26.83;;;10.30;;
67749;SDS011;54550;48.838;8.828;2024-03-23T04:57:11;30.90;;;10.85;;
67749;SDS011;54550;48.838;8.828;2024-03-23T05:00:46;22.75;;;9.48;;
67749;SDS011;54550;48.838;8.828;2024-03-23T05:02:59;25.73;;;10.63;;
67749;SDS011;54550;48.838;8.828;2024-03-23T05:05:33;30.45;;;11.88;;
67749;SDS011;54550;48.838;8.828;2024-03-23T05:08:06;24.48;;;9.60;;
67749;SDS011;54550;48.838;8.828;2024-03-23T05:10:47;24.48;;;10.18;;
67749;SDS011;54550;48.838;8.828;2024-03-23T05:13:51;25.58;;;10.50;;
67749;SDS011;54550;48.838;8.828;2024-03-23T05:25:32;25.90;;;11.75;;
67749;SDS011;54550;48.838;8.828;2024-03-23T05:28:13;25.90;;;9.60;;
67749;SDS011;54550;48.838;8.828;2024-03-23T05:30:56;22.38;;;7.30;;
67749;SDS011;54550;48.838;8.828;2024-03-23T05:34:28;16.58;;;6.68;;
67749;SDS011;54550;48.838;8.828;2024-03-23T05:36:55;17.38;;;6.15;;
67749;SDS011;54550;48.838;8.828;2024-03-23T05:39:30;13.05;;;5.35;;
67749;SDS011;54550;48.838;8.828;2024-03-23T05:42:01;12.05;;;4.63;;
67749;SDS011;54550;48.838;8.828;2024-03-23T05:44:56;13.75;;;5.68;;
67749;SDS011;54550;48.838;8.828;2024-03-23T05:47:24;11.35;;;4.10;;
67749;SDS011;54550;48.838;8.828;2024-03-23T05:50:21;9.88;;;3.75;;
67749;SDS011;54550;48.838;8.828;2024-03-23T05:52:49;11.18;;;4.05;;
67749;SDS011;54550;48.838;8.828;2024-03-23T05:55:29;12.07;;;3.65;;
67749;SDS011;54550;48.838;8.828;2024-03-23T05:58:04;12.30;;;3.75;;
67749;SDS011;54550;48.838;8.828;2024-03-23T06:01:05;8.75;;;3.25;;
67749;SDS011;54550;48.838;8.828;2024-03-23T06:03:44;9.45;;;3.13;;
67749;SDS011;54550;48.838;8.828;2024-03-23T06:06:28;6.53;;;2.30;;
67749;SDS011;54550;48.838;8.828;2024-03-23T06:15:08;4.82;;;1.85;;
67749;SDS011;54550;48.838;8.828;2024-03-23T06:27:16;4.07;;;1.15;;
67749;SDS011;54550;48.838;8.828;2024-03-23T06:29:45;4.75;;;0.90;;
67749;SDS011;54550;48.838;8.828;2024-03-23T06:32:42;4.00;;;1.02;;
67749;SDS011;54550;48.838;8.828;2024-03-23T06:35:28;1.90;;;0.60;;
67749;SDS011;54550;48.838;8.828;2024-03-23T06:38:42;3.38;;;0.65;;
67749;SDS011;54550;48.838;8.828;2024-03-23T06:41:20;2.53;;;0.80;;
67749;SDS011;54550;48.838;8.828;2024-03-23T06:44:03;1.23;;;0.65;;
67749;SDS011;54550;48.838;8.828;2024-03-23T06:46:44;1.70;;;0.40;;
67749;SDS011;54550;48.838;8.828;2024-03-23T06:49:23;1.30;;;0.50;;
67749;SDS011;54550;48.838;8.828;2024-03-23T06:52:02;1.75;;;0.40;;
67749;SDS011;54550;48.838;8.828;2024-03-23T06:54:39;1.15;;;0.40;;
67749;SDS011;54550;48.838;8.828;2024-03-23T06:57:19;1.58;;;0.55;;
67749;SDS011;54550;48.838;8.828;2024-03-23T06:59:47;1.17;;;0.50;;
67749;SDS011;54550;48.838;8.828;2024-03-23T07:02:18;1.08;;;0.30;;
67749;SDS011;54550;48.838;8.828;2024-03-23T07:04:59;0.60;;;0.20;;
67749;SDS011;54550;48.838;8.828;2024-03-23T07:07:30;1.13;;;0.30;;
67749;SDS011;54550;48.838;8.828;2024-03-23T07:09:59;0.70;;;0.22;;
67749;SDS011;54550;48.838;8.828;2024-03-23T07:12:31;1.63;;;0.45;;
67749;SDS011;54550;48.838;8.828;2024-03-23T07:15:04;1.23;;;0.40;;
67749;SDS011;54550;48.838;8.828;2024-03-23T07:20:29;0.95;;;0.32;;
67749;SDS011;54550;48.838;8.828;2024-03-23T07:23:21;1.15;;;0.40;;
67749;SDS011;54550;48.838;8.828;2024-03-23T07:25:59;5.00;;;0.52;;
67749;SDS011;54550;48.838;8.828;2024-03-23T07:28:35;1.13;;;0.50;;
67749;SDS011;54550;48.838;8.828;2024-03-23T07:31:47;1.00;;;0.40;;
67749;SDS011;54550;48.838;8.828;2024-03-23T07:34:27;0.80;;;0.35;;
67749;SDS011;54550;48.838;8.828;2024-03-23T07:37:18;0.70;;;0.30;;
67749;SDS011;54550;48.838;8.828;2024-03-23T07:40:15;1.58;;;0.85;;
67749;SDS011;54550;48.838;8.828;2024-03-23T07:43:37;1.20;;;0.40;;
67749;SDS011;54550;48.838;8.828;2024-03-23T07:46:44;1.48;;;0.40;;
67749;SDS011;54550;48.838;8.828;2024-03-23T07:49:35;1.23;;;0.43;;
67749;SDS011;54550;48.838;8.828;2024-03-23T07:52:35;1.23;;;0.40;;
67749;SDS011;54550;48.838;8.828;2024-03-23T07:55:16;0.93;;;0.32;;
67749;SDS011;54550;48.838;8.828;2024-03-23T07:58:17;2.17;;;0.88;;
67749;SDS011;54550;48.838;8.828;2024-03-23T08:01:35;1.02;;;0.45;;
67749;SDS011;54550;48.838;8.828;2024-03-23T08:04:07;1.95;;;0.70;;
67749;SDS011;54550;48.838;8.828;2024-03-23T08:07:10;1.42;;;0.50;;
67749;SDS011;54550;48.838;8.828;2024-03-23T08:09:44;0.95;;;0.60;;
67749;SDS011;54550;48.838;8.828;2024-03-23T08:12:13;1.77;;;0.50;;
67749;SDS011;54550;48.838;8.828;2024-03-23T08:14:49;1.85;;;0.75;;
67749;SDS011;54550;48.838;8.828;2024-03-23T08:17:43;1.27;;;0.60;;
67749;SDS011;54550;48.838;8.828;2024-03-23T08:20:41;1.67;;;0.98;;
67749;SDS011;54550;48.838;8.828;2024-03-23T08:23:56;2.10;;;0.70;;
67749;SDS011;54550;48.838;8.828;2024-03-23T08:26:32;1.92;;;0.80;;
67749;SDS011;54550;48.838;8.828;2024-03-23T08:29:13;1.73;;;0.43;;
67749;SDS011;54550;48.838;8.828;2024-03-23T08:34:33;1.25;;;0.43;;
67749;SDS011;54550;48.838;8.828;2024-03-23T08:37:11;2.60;;;0.75;;
67749;SDS011;54550;48.838;8.828;2024-03-23T08:39:38;1.83;;;0.60;;
67749;SDS011;54550;48.838;8.828;2024-03-23T08:42:34;5.40;;;1.08;;
67749;SDS011;54550;48.838;8.828;2024-03-23T08:45:03;1.63;;;0.90;;
67749;SDS011;54550;48.838;8.828;2024-03-23T08:47:33;1.75;;;0.73;;
67749;SDS011;54550;48.838;8.828;2024-03-23T08:50:12;2.10;;;0.80;;
67749;SDS011;54550;48.838;8.828;2024-03-23T08:52:41;4.95;;;0.80;;
67749;SDS011;54550;48.838;8.828;2024-03-23T08:55:19;3.33;;;1.35;;
67749;SDS011;54550;48.838;8.828;2024-03-23T08:57:48;4.35;;;1.30;;
67749;SDS011;54550;48.838;8.828;2024-03-23T09:00:26;4.30;;;0.80;;
67749;SDS011;54550;48.838;8.828;2024-03-23T09:02:59;4.68;;;0.90;;
67749;SDS011;54550;48.838;8.828;2024-03-23T09:05:38;4.72;;;1.55;;
67749;SDS011;54550;48.838;8.828;2024-03-23T09:08:20;4.75;;;1.30;;
67749;SDS011;54550;48.838;8.828;2024-03-23T09:10:49;3.33;;;1.13;;
67749;SDS011;54550;48.838;8.828;2024-03-23T09:16:05;5.65;;;1.65;;
67749;SDS011;54550;48.838;8.828;2024-03-23T09:18:32;3.92;;;0.70;;
67749;SDS011;54550;48.838;8.828;2024-03-23T09:20:59;4.03;;;1.20;;
67749;SDS011;54550;48.838;8.828;2024-03-23T09:26:14;5.38;;;1.65;;
67749;SDS011;54550;48.838;8.828;2024-03-23T09:31:45;5.30;;;1.42;;
67749;SDS011;54550;48.838;8.828;2024-03-23T09:34:34;5.47;;;2.17;;
67749;SDS011;54550;48.838;8.828;2024-03-23T09:37:21;7.13;;;1.95;;
67749;SDS011;54550;48.838;8.828;2024-03-23T09:39:47;5.00;;;2.03;;
67749;SDS011;54550;48.838;8.828;2024-03-23T09:42:37;6.88;;;1.70;;
67749;SDS011;54550;48.838;8.828;2024-03-23T09:47:55;6.65;;;2.38;;
67749;SDS011;54550;48.838;8.828;2024-03-23T09:50:45;4.78;;;1.50;;
67749;SDS011;54550;48.838;8.828;2024-03-23T09:55:53;5.32;;;1.27;;
67749;SDS011;54550;48.838;8.828;2024-03-23T09:58:18;6.20;;;1.73;;
67749;SDS011;54550;48.838;8.828;2024-03-23T10:00:48;5.60;;;1.73;;
67749;SDS011;54550;48.838;8.828;2024-03-23T10:03:17;7.07;;;1.60;;
67749;SDS011;54550;48.838;8.828;2024-03-23T10:05:42;5.57;;;1.63;;
67749;SDS011;54550;48.838;8.828;2024-03-23T10:08:21;4.85;;;1.05;;
67749;SDS011;54550;48.838;8.828;2024-03-23T10:11:20;7.50;;;1.58;;
67749;SDS011;54550;48.838;8.828;2024-03-23T10:13:49;6.43;;;1.52;;
67749;SDS011;54550;48.838;8.828;2024-03-23T10:16:22;3.55;;;1.30;;
67749;SDS011;54550;48.838;8.828;2024-03-23T10:18:57;5.35;;;1.55;;
67749;SDS011;54550;48.838;8.828;2024-03-23T10:21:52;6.03;;;2.08;;
67749;SDS011;54550;48.838;8.828;2024-03-23T10:24:29;4.28;;;1.90;;
67749;SDS011;54550;48.838;8.828;2024-03-23T10:26:56;7.47;;;2.50;;
67749;SDS011;54550;48.838;8.828;2024-03-23T10:29:34;6.47;;;1.80;;
67749;SDS011;54550;48.838;8.828;2024-03-23T10:32:10;6.15;;;1.90;;
67749;SDS011;54550;48.838;8.828;2024-03-23T10:34:42;7.93;;;2.70;;
67749;SDS011;54550;48.838;8.828;2024-03-23T10:40:46;6.75;;;2.90;;
67749;SDS011;54550;48.838;8.828;2024-03-23T10:43:30;7.22;;;1.98;;
67749;SDS011;54550;48.838;8.828;2024-03-23T10:46:11;6.95;;;2.67;;
67749;SDS011;54550;48.838;8.828;2024-03-23T10:48:55;7.15;;;2.58;;
67749;SDS011;54550;48.838;8.828;2024-03-23T10:51:21;5.63;;;2.10;;
67749;SDS011;54550;48.838;8.828;2024-03-23T10:53:50;6.45;;;1.98;;
67749;SDS011;54550;48.838;8.828;2024-03-23T10:56:16;7.90;;;2.38;;
67749;SDS011;54550;48.838;8.828;2024-03-23T10:58:54;7.47;;;2.67;;
67749;SDS011;54550;48.838;8.828;2024-03-23T11:01:32;11.10;;;3.67;;
67749;SDS011;54550;48.838;8.828;2024-03-23T11:08:06;2.42;;;1.05;;
67749;SDS011;54550;48.838;8.828;2024-03-23T11:11:21;4.35;;;1.38;;
67749;SDS011;54550;48.838;8.828;2024-03-23T11:13:59;3.20;;;0.98;;
67749;SDS011;54550;48.838;8.828;2024-03-23T11:16:32;4.68;;;1.17;;
67749;SDS011;54550;48.838;8.828;2024-03-23T11:22:12;2.85;;;0.60;;
67749;SDS011;54550;48.838;8.828;2024-03-23T11:24:41;3.00;;;0.75;;
67749;SDS011;54550;48.838;8.828;2024-03-23T11:27:24;2.45;;;0.80;;
67749;SDS011;54550;48.838;8.828;2024-03-23T11:29:53;3.70;;;0.80;;
67749;SDS011;54550;48.838;8.828;2024-03-23T11:32:34;3.22;;;1.00;;
67749;SDS011;54550;48.838;8.828;2024-03-23T11:35:03;2.50;;;0.57;;
67749;SDS011;54550;48.838;8.828;2024-03-23T11:37:38;5.78;;;0.57;;
67749;SDS011;54550;48.838;8.828;2024-03-23T11:40:25;2.42;;;0.50;;
67749;SDS011;54550;48.838;8.828;2024-03-23T11:48:18;4.40;;;0.50;;
67749;SDS011;54550;48.838;8.828;2024-03-23T11:52:04;2.28;;;0.43;;
67749;SDS011;54550;48.838;8.828;2024-03-23T11:54:25;5.80;;;0.75;;
67749;SDS011;54550;48.838;8.828;2024-03-23T11:56:58;2.95;;;1.00;;
67749;SDS011;54550;48.838;8.828;2024-03-23T11:59:51;4.57;;;0.70;;
67749;SDS011;54550;48.838;8.828;2024-03-23T12:02:22;3.50;;;0.75;;
67749;SDS011;54550;48.838;8.828;2024-03-23T12:05:30;7.82;;;1.05;;
67749;SDS011;54550;48.838;8.828;2024-03-23T12:08:28;6.25;;;0.73;;
67749;SDS011;54550;48.838;8.828;2024-03-23T12:11:16;4.82;;;1.30;;
67749;SDS011;54550;48.838;8.828;2024-03-23T12:13:45;2.65;;;0.73;;
67749;SDS011;54550;48.838;8.828;2024-03-23T12:16:20;4.93;;;0.85;;
67749;SDS011;54550;48.838;8.828;2024-03-23T12:18:50;4.20;;;0.90;;
67749;SDS011;54550;48.838;8.828;2024-03-23T12:21:39;4.47;;;1.08;;
67749;SDS011;54550;48.838;8.828;2024-03-23T12:24:15;5.20;;;0.93;;
67749;SDS011;54550;48.838;8.828;2024-03-23T12:26:59;3.65;;;1.17;;
67749;SDS011;54550;48.838;8.828;2024-03-23T12:29:51;7.90;;;1.33;;
67749;SDS011;54550;48.838;8.828;2024-03-23T12:32:51;6.40;;;1.70;;
67749;SDS011;54550;48.838;8.828;2024-03-23T12:35:35;3.47;;;0.88;;
67749;SDS011;54550;48.838;8.828;2024-03-23T12:38:19;4.88;;;1.45;;
67749;SDS011;54550;48.838;8.828;2024-03-23T12:41:11;6.25;;;1.17;;
67749;SDS011;54550;48.838;8.828;2024-03-23T12:43:54;4.50;;;0.80;;
67749;SDS011;54550;48.838;8.828;2024-03-23T12:46:24;6.75;;;0.93;;
67749;SDS011;54550;48.838;8.828;2024-03-23T12:48:58;6.28;;;0.98;;
67749;SDS011;54550;48.838;8.828;2024-03-23T12:51:28;2.92;;;0.80;;
67749;SDS011;54550;48.838;8.828;2024-03-23T12:54:03;2.78;;;1.05;;
67749;SDS011;54550;48.838;8.828;2024-03-23T12:56:29;5.25;;;1.20;;
67749;SDS011;54550;48.838;8.828;2024-03-23T12:59:03;5.72;;;0.80;;
67749;SDS011;54550;48.838;8.828;2024-03-23T13:01:55;3.47;;;1.02;;
67749;SDS011;54550;48.838;8.828;2024-03-23T13:04:39;2.40;;;0.80;;
67749;SDS011;54550;48.838;8.828;2024-03-23T13:07:26;4.53;;;0.80;;
67749;SDS011;54550;48.838;8.828;2024-03-23T13:10:07;5.43;;;1.00;;
67749;SDS011;54550;48.838;8.828;2024-03-23T13:12:35;3.30;;;0.80;;
67749;SDS011;54550;48.838;8.828;2024-03-23T13:15:18;3.38;;;0.75;;
67749;SDS011;54550;48.838;8.828;2024-03-23T13:17:49;5.45;;;1.00;;
67749;SDS011;54550;48.838;8.828;2024-03-23T13:20:38;7.40;;;1.23;;
67749;SDS011;54550;48.838;8.828;2024-03-23T13:23:10;3.50;;;0.73;;
67749;SDS011;54550;48.838;8.828;2024-03-23T13:25:55;7.95;;;1.00;;
67749;SDS011;54550;48.838;8.828;2024-03-23T13:28:26;4.85;;;1.00;;
67749;SDS011;54550;48.838;8.828;2024-03-23T13:30:58;7.97;;;1.08;;
67749;SDS011;54550;48.838;8.828;2024-03-23T13:33:37;8.90;;;1.13;;
67749;SDS011;54550;48.838;8.828;2024-03-23T13:36:33;5.95;;;1.40;;
67749;SDS011;54550;48.838;8.828;2024-03-23T13:39:03;3.85;;;0.90;;
67749;SDS011;54550;48.838;8.828;2024-03-23T13:41:39;3.55;;;0.98;;
67749;SDS011;54550;48.838;8.828;2024-03-23T13:44:08;3.10;;;0.75;;
67749;SDS011;54550;48.838;8.828;2024-03-23T13:49:26;4.30;;;0.93;;
67749;SDS011;54550;48.838;8.828;2024-03-23T13:52:18;3.10;;;0.93;;
67749;SDS011;54550;48.838;8.828;2024-03-23T13:54:43;5.78;;;0.93;;
67749;SDS011;54550;48.838;8.828;2024-03-23T13:57:20;3.17;;;1.08;;
67749;SDS011;54550;48.838;8.828;2024-03-23T13:59:59;3.65;;;1.10;;
67749;SDS011;54550;48.838;8.828;2024-03-23T14:02:28;3.25;;;1.00;;
67749;SDS011;54550;48.838;8.828;2024-03-23T14:05:03;4.13;;;0.93;;
67749;SDS011;54550;48.838;8.828;2024-03-23T14:07:35;4.05;;;1.38;;
67749;SDS011;54550;48.838;8.828;2024-03-23T14:13:53;9.52;;;1.80;;
67749;SDS011;54550;48.838;8.828;2024-03-23T14:16:22;6.55;;;2.40;;
67749;SDS011;54550;48.838;8.828;2024-03-23T14:25:36;15.85;;;3.60;;
67749;SDS011;54550;48.838;8.828;2024-03-23T14:35:25;3.25;;;0.77;;
67749;SDS011;54550;48.838;8.828;2024-03-23T14:38:22;2.72;;;0.50;;
67749;SDS011;54550;48.838;8.828;2024-03-23T14:41:16;1.50;;;0.40;;
67749;SDS011;54550;48.838;8.828;2024-03-23T14:49:57;3.28;;;0.50;;
67749;SDS011;54550;48.838;8.828;2024-03-23T14:52:45;1.98;;;0.45;;
67749;SDS011;54550;48.838;8.828;2024-03-23T14:55:49;3.10;;;0.50;;
67749;SDS011;54550;48.838;8.828;2024-03-23T14:58:24;2.20;;;0.60;;
67749;SDS011;54550;48.838;8.828;2024-03-23T15:01:05;10.20;;;3.17;;
67749;SDS011;54550;48.838;8.828;2024-03-23T15:04:27;15.25;;;4.03;;
67749;SDS011;54550;48.838;8.828;2024-03-23T15:07:17;21.45;;;6.00;;
67749;SDS011;54550;48.838;8.828;2024-03-23T15:10:21;2.88;;;0.28;;
67749;SDS011;54550;48.838;8.828;2024-03-23T15:17:01;10.02;;;3.03;;
67749;SDS011;54550;48.838;8.828;2024-03-23T15:19:44;3.97;;;1.15;;
67749;SDS011;54550;48.838;8.828;2024-03-23T15:22:19;1.70;;;0.68;;
67749;SDS011;54550;48.838;8.828;2024-03-23T15:24:56;2.10;;;0.43;;
67749;SDS011;54550;48.838;8.828;2024-03-23T15:27:37;2.70;;;0.40;;
67749;SDS011;54550;48.838;8.828;2024-03-23T15:30:26;2.60;;;0.40;;
67749;SDS011;54550;48.838;8.828;2024-03-23T15:33:21;1.10;;;0.35;;
67749;SDS011;54550;48.838;8.828;2024-03-23T15:35:58;2.05;;;0.30;;
67749;SDS011;54550;48.838;8.828;2024-03-23T15:38:42;1.08;;;0.60;;
67749;SDS011;54550;48.838;8.828;2024-03-23T15:41:26;1.05;;;0.32;;
67749;SDS011;54550;48.838;8.828;2024-03-23T15:44:15;1.30;;;0.55;;
67749;SDS011;54550;48.838;8.828;2024-03-23T15:46:53;1.02;;;0.30;;
67749;SDS011;54550;48.838;8.828;2024-03-23T15:49:25;2.70;;;0.75;;
67749;SDS011;54550;48.838;8.828;2024-03-23T15:58:29;3.88;;;0.60;;
67749;SDS011;54550;48.838;8.828;2024-03-23T16:01:35;0.75;;;0.20;;
67749;SDS011;54550;48.838;8.828;2024-03-23T16:07:37;3.03;;;0.93;;
67749;SDS011;54550;48.838;8.828;2024-03-23T16:10:29;1.10;;;0.30;;
67749;SDS011;54550;48.838;8.828;2024-03-23T16:13:09;3.70;;;0.90;;
67749;SDS011;54550;48.838;8.828;2024-03-23T16:15:55;2.38;;;0.40;;
67749;SDS011;54550;48.838;8.828;2024-03-23T16:18:25;0.88;;;0.30;;
67749;SDS011;54550;48.838;8.828;2024-03-23T16:21:03;2.67;;;0.95;;
67749;SDS011;54550;48.838;8.828;2024-03-23T16:23:37;2.15;;;0.85;;
67749;SDS011;54550;48.838;8.828;2024-03-23T16:26:15;1.58;;;0.68;;
67749;SDS011;54550;48.838;8.828;2024-03-23T16:38:18;2.85;;;0.47;;
67749;SDS011;54550;48.838;8.828;2024-03-23T16:41:07;3.17;;;1.08;;
67749;SDS011;54550;48.838;8.828;2024-03-23T16:44:13;1.75;;;0.73;;
67749;SDS011;54550;48.838;8.828;2024-03-23T16:47:27;2.10;;;0.70;;
67749;SDS011;54550;48.838;8.828;2024-03-23T16:50:05;3.63;;;1.00;;
67749;SDS011;54550;48.838;8.828;2024-03-23T16:56:07;1.05;;;0.40;;
67749;SDS011;54550;48.838;8.828;2024-03-23T17:02:07;1.13;;;0.38;;
67749;SDS011;54550;48.838;8.828;2024-03-23T17:05:50;0.90;;;0.30;;
67749;SDS011;54550;48.838;8.828;2024-03-23T17:08:45;1.95;;;0.50;;
67749;SDS011;54550;48.838;8.828;2024-03-23T17:22:01;1.42;;;0.40;;
67749;SDS011;54550;48.838;8.828;2024-03-23T17:25:25;3.17;;;0.98;;
67749;SDS011;54550;48.838;8.828;2024-03-23T17:28:07;2.97;;;1.00;;
67749;SDS011;54550;48.838;8.828;2024-03-23T17:34:21;1.77;;;0.77;;
67749;SDS011;54550;48.838;8.828;2024-03-23T17:37:19;1.95;;;0.60;;
67749;SDS011;54550;48.838;8.828;2024-03-23T17:40:07;0.57;;;0.20;;
67749;SDS011;54550;48.838;8.828;2024-03-23T17:43:03;2.90;;;0.70;;
67749;SDS011;54550;48.838;8.828;2024-03-23T17:45:38;3.88;;;0.82;;
67749;SDS011;54550;48.838;8.828;2024-03-23T17:48:32;2.25;;;0.80;;
67749;SDS011;54550;48.838;8.828;2024-03-23T17:58:30;1.98;;;0.80;;
67749;SDS011;54550;48.838;8.828;2024-03-23T18:01:29;1.48;;;0.47;;
67749;SDS011;54550;48.838;8.828;2024-03-23T18:04:36;1.08;;;0.52;;
67749;SDS011;54550;48.838;8.828;2024-03-23T18:10:55;3.50;;;2.08;;
67749;SDS011;54550;48.838;8.828;2024-03-23T18:13:56;1.33;;;0.52;;
67749;SDS011;54550;48.838;8.828;2024-03-23T18:16:49;7.72;;;2.33;;
67749;SDS011;54550;48.838;8.828;2024-03-23T18:19:42;4.50;;;1.75;;
67749;SDS011;54550;48.838;8.828;2024-03-23T18:22:11;7.75;;;2.72;;
67749;SDS011;54550;48.838;8.828;2024-03-23T18:25:27;3.55;;;1.20;;
67749;SDS011;54550;48.838;8.828;2024-03-23T18:28:25;7.93;;;1.50;;
67749;SDS011;54550;48.838;8.828;2024-03-23T18:37:38;1.40;;;0.55;;
67749;SDS011;54550;48.838;8.828;2024-03-23T18:40:18;3.17;;;1.55;;
67749;SDS011;54550;48.838;8.828;2024-03-23T18:45:56;1.15;;;0.50;;
67749;SDS011;54550;48.838;8.828;2024-03-23T18:48:42;3.63;;;0.73;;
67749;SDS011;54550;48.838;8.828;2024-03-23T18:51:08;3.38;;;0.80;;
67749;SDS011;54550;48.838;8.828;2024-03-23T18:54:12;3.33;;;1.23;;
67749;SDS011;54550;48.838;8.828;2024-03-23T18:56:37;3.17;;;1.00;;
67749;SDS011;54550;48.838;8.828;2024-03-23T18:59:09;2.45;;;0.85;;
67749;SDS011;54550;48.838;8.828;2024-03-23T19:01:50;2.17;;;0.80;;
67749;SDS011;54550;48.838;8.828;2024-03-23T19:07:27;4.22;;;0.60;;
67749;SDS011;54550;48.838;8.828;2024-03-23T19:10:07;6.93;;;2.92;;
67749;SDS011;54550;48.838;8.828;2024-03-23T19:12:57;4.00;;;1.50;;
67749;SDS011;54550;48.838;8.828;2024-03-23T19:15:37;3.63;;;0.60;;
67749;SDS011;54550;48.838;8.828;2024-03-23T19:18:29;1.58;;;0.73;;
67749;SDS011;54550;48.838;8.828;2024-03-23T19:21:29;0.55;;;0.30;;
67749;SDS011;54550;48.838;8.828;2024-03-23T19:24:26;1.15;;;0.35;;
67749;SDS011;54550;48.838;8.828;2024-03-23T19:29:46;1.13;;;0.45;;
67749;SDS011;54550;48.838;8.828;2024-03-23T19:32:39;1.90;;;0.95;;
67749;SDS011;54550;48.838;8.828;2024-03-23T19:35:53;0.73;;;0.32;;
67749;SDS011;54550;48.838;8.828;2024-03-23T19:41:30;2.53;;;0.80;;
67749;SDS011;54550;48.838;8.828;2024-03-23T19:44:19;2.97;;;0.40;;
67749;SDS011;54550;48.838;8.828;2024-03-23T19:47:28;0.90;;;0.50;;
67749;SDS011;54550;48.838;8.828;2024-03-23T19:50:17;2.92;;;0.45;;
67749;SDS011;54550;48.838;8.828;2024-03-23T19:53:07;3.40;;;0.40;;
67749;SDS011;54550;48.838;8.828;2024-03-23T19:55:42;1.10;;;0.38;;
67749;SDS011;54550;48.838;8.828;2024-03-23T19:59:17;2.60;;;0.88;;